Terminal Aerodrome Forecast
Issued by NWS Milwaukee/Sullivan, WI

Home | Current Version | Previous Version | Text Only | Print | Product List | Glossary On
Versions: 1 2 3 4 5 6 7 8 9 10 11 12 13 14 15 16 17 18 19 20 21
000
FTUS43 KMKX 272103 AAA
TAFMSN
TAF AMD
KMSN 272103Z 2721/2818 22007KT P6SM SCT070
     FM280500 18006KT P6SM FEW250
     FM281000 18008KT P6SM SCT150 WS020/20035KT
     FM281400 18014G22KT P6SM VCTS BKN050CB=

USA.gov is the U.S. government's official web portal to all federal, state and local government web resources and services.